Colony Town, Mississippi
Current Conditions -  °F | °C
As of 10:53 PM on Wednesday 26 Nov 2014 (Local Time) from KGWO Reporting Station
Clear Clear  
Wind Chill: 38°   Ceiling: Unl
Heat Index: 38°   Visibility: 10mi
Dew Point: 34°   Wind: 3mph
Humidity: 86%   Direction: 190°S
Pressure: 30.21"   Gusts: NA
Location:  33.4064°N, 90.3812°W
Report Text: KGWO 270453Z AUTO 19003KT 10SM CLR 03/01 A3021 RMK AO2 SLP231 T00330011 TSNO
Loading
Personal Weather Stations






























Interactive Weather Map New forecast layout! Learn more

10-Day Weather Forecast

Advertisements
Track Severe Weather on mobile